createdAt,value
2023-10-22T00:00:27.713Z,12.32
2023-10-22T00:02:54.237Z,12.17
2023-10-22T00:05:20.714Z,12.38
2023-10-22T00:07:48.461Z,12.42
2023-10-22T00:10:14.930Z,12.36
2023-10-22T00:12:41.396Z,12.58
2023-10-22T00:15:08.599Z,12.59
2023-10-22T00:17:35.148Z,12.41
2023-10-22T00:20:01.653Z,12.49
2023-10-22T00:22:28.076Z,12.56
2023-10-22T00:24:55.867Z,12.30
2023-10-22T00:27:22.336Z,12.39
2023-10-22T00:29:48.854Z,12.58
2023-10-22T00:32:15.376Z,12.45
2023-10-22T00:34:42.057Z,12.41
2023-10-22T00:37:08.752Z,12.31
2023-10-22T00:39:35.222Z,12.09
2023-10-22T00:42:03.427Z,12.17
2023-10-22T00:44:29.968Z,11.86
2023-10-22T00:46:57.208Z,12.42
2023-10-22T00:49:24.460Z,12.50
2023-10-22T00:51:51.332Z,12.41
2023-10-22T00:54:19.518Z,12.37
2023-10-22T00:56:46.570Z,12.24
2023-10-22T00:59:14.625Z,12.21
2023-10-22T01:01:41.688Z,12.39
2023-10-22T01:04:08.258Z,12.23
2023-10-22T01:06:36.086Z,12.10
2023-10-22T01:09:03.001Z,12.42
2023-10-22T01:11:29.544Z,12.10
2023-10-22T01:13:56.200Z,12.35
2023-10-22T01:16:24.124Z,12.30
2023-10-22T01:18:50.674Z,12.35
2023-10-22T01:21:17.124Z,12.45
2023-10-22T01:23:45.013Z,11.90
2023-10-22T01:26:11.515Z,12.02
2023-10-22T01:28:38.002Z,12.22
2023-10-22T01:31:04.732Z,12.34
2023-10-22T01:33:31.295Z,11.83
2023-10-22T01:35:57.846Z,12.15
2023-10-22T01:38:24.383Z,11.97
2023-10-22T01:40:52.138Z,11.84
2023-10-22T01:43:18.585Z,12.35
2023-10-22T01:45:45.803Z,12.23
2023-10-22T01:48:12.339Z,12.31
2023-10-22T01:50:38.856Z,12.23
2023-10-22T01:53:05.327Z,12.43
2023-10-22T01:55:31.815Z,12.49
2023-10-22T01:57:59.596Z,12.69
2023-10-22T02:00:27.186Z,12.35
2023-10-22T02:02:53.942Z,12.38
2023-10-22T02:05:20.495Z,12.40
2023-10-22T02:07:47.011Z,11.51
2023-10-22T02:10:13.479Z,12.28
2023-10-22T02:12:40.144Z,12.33
2023-10-22T02:15:09.207Z,12.36
2023-10-22T02:17:35.801Z,12.45
2023-10-22T02:20:02.306Z,12.50
2023-10-22T02:22:28.775Z,12.44
2023-10-22T02:24:55.236Z,12.12
2023-10-22T02:27:21.673Z,12.37
2023-10-22T02:29:48.126Z,12.38
2023-10-22T02:32:15.901Z,12.35
2023-10-22T02:34:42.460Z,12.28
2023-10-22T02:37:08.897Z,12.04
2023-10-22T02:39:35.344Z,11.93
2023-10-22T02:42:01.847Z,11.89
2023-10-22T02:44:28.433Z,12.15
2023-10-22T02:46:54.875Z,11.96
2023-10-22T02:49:22.679Z,12.09
2023-10-22T02:51:49.249Z,11.75
2023-10-22T02:54:15.735Z,11.83
2023-10-22T02:56:42.236Z,12.05
2023-10-22T02:59:08.970Z,11.89
2023-10-22T03:01:35.425Z,11.68
2023-10-22T03:04:01.990Z,11.61
2023-10-22T03:06:30.008Z,11.97
2023-10-22T03:08:56.526Z,12.01
2023-10-22T03:11:22.974Z,11.37
2023-10-22T03:13:51.001Z,12.16
2023-10-22T03:16:17.755Z,12.20
2023-10-22T03:18:45.766Z,12.24
2023-10-22T03:21:12.435Z,12.24
2023-10-22T03:23:41.066Z,12.35
2023-10-22T03:26:08.000Z,12.11
2023-10-22T03:28:34.476Z,12.31
2023-10-22T03:31:02.762Z,12.41
2023-10-22T03:33:29.322Z,12.10
2023-10-22T03:35:55.857Z,12.29
2023-10-22T03:38:22.401Z,12.10
2023-10-22T03:40:57.304Z,12.06
2023-10-22T03:43:23.797Z,12.30
2023-10-22T03:45:50.275Z,12.13
2023-10-22T03:48:16.898Z,12.01
2023-10-22T03:50:44.429Z,12.23
2023-10-22T03:53:10.861Z,12.15
2023-10-22T03:55:37.367Z,11.77
2023-10-22T03:58:05.220Z,12.00
2023-10-22T04:00:31.733Z,12.25
2023-10-22T04:02:58.286Z,12.13
2023-10-22T04:05:24.899Z,12.59
2023-10-22T04:07:51.451Z,12.19
2023-10-22T04:10:18.124Z,12.04
2023-10-22T04:12:44.616Z,12.77
2023-10-22T04:15:13.351Z,12.38
2023-10-22T04:17:39.853Z,12.15
2023-10-22T04:20:07.795Z,12.66
2023-10-22T04:22:35.835Z,12.37
2023-10-22T04:25:04.708Z,12.12
2023-10-22T04:27:31.166Z,12.45
2023-10-22T04:29:57.688Z,11.82
2023-10-22T04:32:25.486Z,11.80
2023-10-22T04:34:51.957Z,12.04
2023-10-22T04:37:18.460Z,11.70
2023-10-22T04:39:44.958Z,12.13
2023-10-22T04:42:11.459Z,12.56
2023-10-22T04:44:38.010Z,12.30
2023-10-22T04:47:05.111Z,12.13
2023-10-22T04:49:32.936Z,12.50
2023-10-22T04:51:59.453Z,12.67
2023-10-22T04:54:26.031Z,12.86
2023-10-22T04:56:52.498Z,12.32
2023-10-22T04:59:18.969Z,12.01
2023-10-22T05:01:45.610Z,12.37
2023-10-22T05:04:12.185Z,12.11
2023-10-22T05:06:40.005Z,12.81
2023-10-22T05:09:06.500Z,12.20
2023-10-22T05:11:32.977Z,12.65
2023-10-22T05:13:59.474Z,12.71
2023-10-22T05:16:26.188Z,13.07
2023-10-22T05:18:52.861Z,13.05
2023-10-22T05:21:19.417Z,12.38
2023-10-22T05:23:47.270Z,12.93
2023-10-22T05:26:14.070Z,12.84
2023-10-22T05:28:40.686Z,12.76
2023-10-22T05:31:17.228Z,12.25
2023-10-22T05:33:43.837Z,12.50
2023-10-22T05:36:16.899Z,12.58
2023-10-22T05:38:43.933Z,11.98
2023-10-22T05:41:18.255Z,12.43
2023-10-22T05:43:44.741Z,12.18
2023-10-22T05:46:11.178Z,11.66
2023-10-22T05:48:37.922Z,12.07
2023-10-22T05:51:04.578Z,12.12
2023-10-22T05:53:31.010Z,11.91
2023-10-22T05:55:57.896Z,11.60
2023-10-22T05:58:26.417Z,11.74
2023-10-22T06:00:53.066Z,12.23
2023-10-22T06:03:19.791Z,11.92
2023-10-22T06:05:46.734Z,11.81
2023-10-22T06:08:13.194Z,12.07
2023-10-22T06:10:44.068Z,12.09
2023-10-22T06:13:10.801Z,12.56
2023-10-22T06:15:40.274Z,12.63
2023-10-22T06:18:07.276Z,12.66
2023-10-22T06:20:34.865Z,12.65
2023-10-22T06:23:02.039Z,11.92
2023-10-22T06:25:28.654Z,12.06
2023-10-22T06:27:55.750Z,12.15
2023-10-22T06:30:23.796Z,11.84
2023-10-22T06:32:52.917Z,11.71
2023-10-22T06:35:19.860Z,12.05
2023-10-22T06:37:46.309Z,11.98
2023-10-22T06:40:13.299Z,11.79
2023-10-22T06:42:39.835Z,12.34
2023-10-22T06:45:07.542Z,12.36
2023-10-22T06:47:35.811Z,11.85
2023-10-22T06:50:04.051Z,12.27
2023-10-22T06:52:30.509Z,12.91
2023-10-22T06:54:57.157Z,12.86
2023-10-22T06:57:23.680Z,12.68
2023-10-22T06:59:52.287Z,12.47
2023-10-22T07:02:19.050Z,12.77
2023-10-22T07:04:45.590Z,13.05
2023-10-22T07:07:13.350Z,12.75
2023-10-22T07:09:39.884Z,12.41
2023-10-22T07:12:07.842Z,13.46
2023-10-22T07:14:34.309Z,12.44
2023-10-22T07:17:00.755Z,13.39
2023-10-22T07:19:27.313Z,12.90
2023-10-22T07:21:53.771Z,13.12
2023-10-22T07:24:21.656Z,12.82
2023-10-22T07:26:48.205Z,12.72
2023-10-22T07:29:14.865Z,13.15
2023-10-22T07:31:41.354Z,12.97
2023-10-22T07:34:07.898Z,12.95
2023-10-22T07:36:34.331Z,12.93
2023-10-22T07:39:00.794Z,13.46
2023-10-22T07:41:28.617Z,13.44
2023-10-22T07:43:55.150Z,14.14
2023-10-22T07:46:21.598Z,13.37
2023-10-22T07:48:48.228Z,14.19
2023-10-22T07:51:15.999Z,13.80
2023-10-22T07:53:42.961Z,13.94
2023-10-22T07:56:10.953Z,13.81
2023-10-22T07:58:39.660Z,13.96
2023-10-22T08:01:07.153Z,14.34
2023-10-22T08:03:34.351Z,14.73
2023-10-22T08:06:02.579Z,12.95
2023-10-22T08:08:29.023Z,13.52
2023-10-22T08:10:56.875Z,14.44
2023-10-22T08:13:23.329Z,14.72
2023-10-22T08:15:51.268Z,15.46
2023-10-22T08:18:18.001Z,14.19
2023-10-22T08:20:44.600Z,15.38
2023-10-22T08:23:11.302Z,15.29
2023-10-22T08:25:37.815Z,15.41
2023-10-22T08:28:04.624Z,15.42
2023-10-22T08:30:31.088Z,14.36
2023-10-22T08:32:59.157Z,14.61
2023-10-22T08:35:25.677Z,14.34
2023-10-22T08:37:52.113Z,14.76
2023-10-22T08:40:18.681Z,14.80
2023-10-22T08:42:45.862Z,14.26
2023-10-22T08:45:12.590Z,14.73
2023-10-22T08:47:39.903Z,14.76
2023-10-22T08:50:10.754Z,13.84
2023-10-22T08:52:37.277Z,13.69
2023-10-22T08:55:04.485Z,13.76
2023-10-22T08:57:32.013Z,14.55
2023-10-22T08:59:58.541Z,14.56
2023-10-22T09:02:26.380Z,14.09
2023-10-22T09:04:52.824Z,14.69
2023-10-22T09:07:36.850Z,14.49
2023-10-22T09:10:03.725Z,14.50
2023-10-22T09:12:30.189Z,15.08
2023-10-22T09:14:59.451Z,14.63
2023-10-22T09:17:25.898Z,15.07
2023-10-22T09:19:52.346Z,14.55
2023-10-22T09:22:24.220Z,14.41
2023-10-22T09:24:52.460Z,14.39
2023-10-22T09:27:24.019Z,14.49
2023-10-22T09:29:50.926Z,14.77
2023-10-22T09:32:17.441Z,14.79
2023-10-22T09:34:44.005Z,15.15
2023-10-22T09:37:10.460Z,15.19
2023-10-22T09:39:39.511Z,14.59
2023-10-22T09:44:37.929Z,15.63
2023-10-22T09:47:05.934Z,15.96
2023-10-22T09:49:33.009Z,15.28
2023-10-22T09:52:00.627Z,15.13
2023-10-22T09:54:37.027Z,15.24
2023-10-22T09:57:08.167Z,15.25
2023-10-22T09:59:35.703Z,15.00
2023-10-22T10:02:02.588Z,15.38
2023-10-22T10:04:32.618Z,15.80
2023-10-22T10:07:02.843Z,15.72
2023-10-22T10:09:30.582Z,15.92
2023-10-22T10:11:59.229Z,15.34
2023-10-22T10:14:40.782Z,15.36
2023-10-22T10:17:07.232Z,15.34
2023-10-22T10:19:33.691Z,15.28
2023-10-22T10:22:00.190Z,15.07
2023-10-22T10:24:27.790Z,15.57
2023-10-22T10:27:24.751Z,15.28
2023-10-22T10:30:17.553Z,15.66
2023-10-22T10:32:52.611Z,15.84
2023-10-22T10:35:28.273Z,15.79
2023-10-22T10:38:23.402Z,15.48
2023-10-22T10:40:51.554Z,16.23
2023-10-22T10:43:18.228Z,16.38
2023-10-22T10:46:22.467Z,16.87
2023-10-22T10:48:50.422Z,16.26
2023-10-22T10:51:18.610Z,16.79
2023-10-22T10:54:13.214Z,16.94
2023-10-22T10:56:50.284Z,16.93
2023-10-22T10:59:30.704Z,16.56
2023-10-22T11:02:08.335Z,15.87
2023-10-22T11:04:37.610Z,16.51
2023-10-22T11:07:17.937Z,16.48
2023-10-22T11:09:51.612Z,16.42
2023-10-22T11:12:20.447Z,16.30
2023-10-22T11:14:54.094Z,16.43
2023-10-22T11:17:20.758Z,16.53
2023-10-22T11:19:51.235Z,16.60
2023-10-22T11:22:18.120Z,16.87
2023-10-22T11:24:46.051Z,16.89
2023-10-22T11:27:12.819Z,16.04
2023-10-22T11:29:42.962Z,16.56
2023-10-22T11:32:12.920Z,16.24
2023-10-22T11:34:49.646Z,16.67
2023-10-22T11:37:19.213Z,16.91
2023-10-22T11:39:45.973Z,16.64
2023-10-22T11:42:12.674Z,16.40
2023-10-22T11:44:44.478Z,16.72
2023-10-22T11:47:25.205Z,15.96
2023-10-22T11:49:53.256Z,16.53
2023-10-22T11:52:37.903Z,16.20
2023-10-22T11:55:05.370Z,16.29
2023-10-22T11:57:31.914Z,16.57
2023-10-22T11:59:58.406Z,16.07
2023-10-22T12:02:24.882Z,16.14
2023-10-22T12:04:52.723Z,16.33
2023-10-22T12:07:19.266Z,16.57
2023-10-22T12:09:45.725Z,16.72
2023-10-22T12:12:12.195Z,16.88
2023-10-22T12:14:38.888Z,16.51
2023-10-22T12:17:05.577Z,16.20
2023-10-22T12:19:32.122Z,16.56
2023-10-22T12:21:59.914Z,16.19
2023-10-22T12:24:27.556Z,16.58
2023-10-22T12:26:54.221Z,16.74
2023-10-22T12:29:23.481Z,15.83
2023-10-22T12:31:50.801Z,16.45
2023-10-22T12:34:17.420Z,17.10
2023-10-22T12:36:44.020Z,16.68
2023-10-22T12:39:11.869Z,16.86
2023-10-22T12:41:38.680Z,16.34
2023-10-22T12:44:05.434Z,16.76
2023-10-22T12:46:32.391Z,16.67
2023-10-22T12:52:27.366Z,17.05
2023-10-22T12:54:55.193Z,16.74
2023-10-22T12:57:21.694Z,16.46
2023-10-22T12:59:48.251Z,16.15
2023-10-22T13:02:14.688Z,16.71
2023-10-22T13:04:41.392Z,16.94
2023-10-22T13:07:08.263Z,16.54
2023-10-22T13:09:34.755Z,16.60
2023-10-22T13:12:02.571Z,16.95
2023-10-22T13:14:29.447Z,16.69
2023-10-22T13:16:55.923Z,16.69
2023-10-22T13:19:22.455Z,16.85
2023-10-22T13:21:49.053Z,16.08
2023-10-22T13:24:15.782Z,16.17
2023-10-22T13:26:42.314Z,16.71
2023-10-22T13:29:10.219Z,16.42
2023-10-22T13:31:37.408Z,16.51
2023-10-22T13:34:04.316Z,16.91
2023-10-22T13:36:31.210Z,16.70
2023-10-22T13:38:57.791Z,17.15
2023-10-22T13:41:24.261Z,17.19
2023-10-22T13:43:50.951Z,16.74
2023-10-22T13:46:18.872Z,16.32
2023-10-22T13:48:45.459Z,16.57
2023-10-22T13:51:12.020Z,16.64
2023-10-22T13:53:38.480Z,16.54
2023-10-22T13:56:05.131Z,16.30
2023-10-22T13:58:31.696Z,15.95
2023-10-22T14:00:58.454Z,16.36
2023-10-22T14:03:26.501Z,16.10
2023-10-22T14:05:54.248Z,16.14
2023-10-22T14:08:23.424Z,16.19
2023-10-22T14:10:50.664Z,16.02
2023-10-22T14:13:17.178Z,16.02
2023-10-22T14:15:43.705Z,15.47
2023-10-22T14:18:10.512Z,16.22
2023-10-22T14:20:38.627Z,16.45
2023-10-22T14:23:05.068Z,16.57
2023-10-22T14:25:31.612Z,16.53
2023-10-22T14:27:58.112Z,15.85
2023-10-22T14:30:26.893Z,16.36
2023-10-22T14:32:53.384Z,16.22
2023-10-22T14:35:20.157Z,16.15
2023-10-22T14:37:48.174Z,16.57
2023-10-22T14:40:14.679Z,16.43
2023-10-22T14:42:41.200Z,16.45
2023-10-22T14:45:08.252Z,16.32
2023-10-22T14:47:34.879Z,16.19
2023-10-22T14:50:01.511Z,16.16
2023-10-22T14:52:28.045Z,16.13
2023-10-22T14:54:56.001Z,16.05
2023-10-22T14:57:22.751Z,16.31
2023-10-22T14:59:49.404Z,16.45
2023-10-22T15:02:15.855Z,16.39
2023-10-22T15:04:42.461Z,15.82
2023-10-22T15:07:09.080Z,15.81
2023-10-22T15:09:35.572Z,15.38
2023-10-22T15:12:04.176Z,15.63
2023-10-22T15:14:30.839Z,15.79
2023-10-22T15:16:57.330Z,15.57
2023-10-22T15:19:23.843Z,15.84
2023-10-22T15:21:50.338Z,15.21
2023-10-22T15:24:16.883Z,15.37
2023-10-22T15:26:43.503Z,15.80
2023-10-22T15:29:11.375Z,15.23
2023-10-22T15:31:37.938Z,15.20
2023-10-22T15:34:04.855Z,15.57
2023-10-22T15:36:31.409Z,15.05
2023-10-22T15:38:58.107Z,15.27
2023-10-22T15:41:24.773Z,15.55
2023-10-22T15:43:51.262Z,14.56
2023-10-22T15:46:22.341Z,15.45
2023-10-22T15:48:49.780Z,15.28
2023-10-22T15:51:17.018Z,15.58
2023-10-22T15:53:43.923Z,15.76
2023-10-22T15:56:10.425Z,15.32
2023-10-22T15:58:37.000Z,15.57
2023-10-22T16:01:03.582Z,14.96
2023-10-22T16:03:31.654Z,15.06
2023-10-22T16:06:00.800Z,15.34
2023-10-22T16:08:27.362Z,15.20
2023-10-22T16:10:53.897Z,15.16
2023-10-22T16:13:20.445Z,15.11
2023-10-22T16:15:46.986Z,15.26
2023-10-22T16:18:13.705Z,14.58
2023-10-22T16:20:41.527Z,14.65
2023-10-22T16:23:07.967Z,14.81
2023-10-22T16:25:34.513Z,15.10
2023-10-22T16:28:00.958Z,15.09
2023-10-22T16:30:27.761Z,14.98
2023-10-22T16:32:54.449Z,14.91
2023-10-22T16:35:20.960Z,14.76
2023-10-22T16:37:48.797Z,14.75
2023-10-22T16:40:15.357Z,15.04
2023-10-22T16:42:41.949Z,14.93
2023-10-22T16:45:09.957Z,14.94
2023-10-22T16:47:36.546Z,14.64
2023-10-22T16:50:03.274Z,14.98
2023-10-22T16:52:29.832Z,15.12
2023-10-22T16:54:57.845Z,14.99
2023-10-22T16:57:24.498Z,15.04
2023-10-22T16:59:51.075Z,14.99
2023-10-22T17:02:17.666Z,15.14
2023-10-22T17:04:44.325Z,14.71
2023-10-22T17:07:10.775Z,14.51
2023-10-22T17:09:37.412Z,14.76
2023-10-22T17:12:06.024Z,14.90
2023-10-22T17:14:48.596Z,14.86
2023-10-22T17:17:18.446Z,14.80
2023-10-22T17:19:45.067Z,14.93
2023-10-22T17:22:11.760Z,14.48
2023-10-22T17:24:38.258Z,14.91
2023-10-22T17:27:06.182Z,14.86
2023-10-22T17:29:32.673Z,14.73
2023-10-22T17:31:59.133Z,15.06
2023-10-22T17:34:25.607Z,14.70
2023-10-22T17:36:52.214Z,14.99
2023-10-22T17:39:18.737Z,14.98
2023-10-22T17:41:45.233Z,14.81
2023-10-22T17:44:13.035Z,14.82
2023-10-22T17:46:39.576Z,14.88
2023-10-22T17:49:06.118Z,14.53
2023-10-22T17:51:32.640Z,14.77
2023-10-22T17:53:59.153Z,14.88
2023-10-22T17:56:25.608Z,14.67
2023-10-22T17:58:52.096Z,14.63
2023-10-22T18:01:19.965Z,14.73
2023-10-22T18:03:46.569Z,14.50
2023-10-22T18:06:13.262Z,14.82
2023-10-22T18:08:39.978Z,14.48
2023-10-22T18:11:06.533Z,14.58
2023-10-22T18:13:33.065Z,13.88
2023-10-22T18:15:59.790Z,14.56
2023-10-22T18:18:28.111Z,14.40
2023-10-22T18:20:54.856Z,14.24
2023-10-22T18:23:21.958Z,14.52
2023-10-22T18:25:58.711Z,13.76
2023-10-22T18:28:25.231Z,14.16
2023-10-22T18:30:51.776Z,14.40
2023-10-22T18:33:18.415Z,14.40
2023-10-22T18:35:46.486Z,14.44
2023-10-22T18:38:13.066Z,14.38
2023-10-22T18:40:39.514Z,14.63
2023-10-22T18:43:06.245Z,14.65
2023-10-22T18:45:39.278Z,14.40
2023-10-22T18:48:06.289Z,14.62
2023-10-22T18:50:33.210Z,14.56
2023-10-22T18:53:01.004Z,14.59
2023-10-22T18:55:27.546Z,14.56
2023-10-22T18:57:54.109Z,14.67
2023-10-22T19:00:22.862Z,14.63
2023-10-22T19:02:49.458Z,14.82
2023-10-22T19:05:16.194Z,14.88
2023-10-22T19:07:42.683Z,14.87
2023-10-22T19:10:10.851Z,14.58
2023-10-22T19:12:37.422Z,14.61
2023-10-22T19:15:05.010Z,14.25
2023-10-22T19:17:31.772Z,13.74
2023-10-22T19:19:58.391Z,13.70
2023-10-22T19:22:24.844Z,14.10
2023-10-22T19:24:51.526Z,13.70
2023-10-22T19:27:19.455Z,13.80
2023-10-22T19:29:45.974Z,13.78
2023-10-22T19:32:12.544Z,13.39
2023-10-22T19:34:39.194Z,13.78
2023-10-22T19:37:05.807Z,13.68
2023-10-22T19:39:32.505Z,13.93
2023-10-22T19:41:59.007Z,13.81
2023-10-22T19:44:26.938Z,13.86
2023-10-22T19:46:53.493Z,13.95
2023-10-22T19:49:20.020Z,13.98
2023-10-22T19:51:46.655Z,13.77
2023-10-22T19:54:13.223Z,13.84
2023-10-22T19:56:39.729Z,14.02
2023-10-22T19:59:06.342Z,13.91
2023-10-22T20:01:34.379Z,13.90
2023-10-22T20:04:00.965Z,13.49
2023-10-22T20:06:27.609Z,13.81
2023-10-22T20:08:54.834Z,13.80
2023-10-22T20:11:21.368Z,13.66
2023-10-22T20:13:47.849Z,13.73
2023-10-22T20:16:19.440Z,13.90
2023-10-22T20:18:47.507Z,13.94
2023-10-22T20:21:15.165Z,13.96
2023-10-22T20:23:41.861Z,13.97
2023-10-22T20:26:08.364Z,13.97
2023-10-22T20:28:34.917Z,13.62
2023-10-22T20:31:01.432Z,13.62
2023-10-22T20:33:27.905Z,13.81
2023-10-22T20:35:55.853Z,13.65
2023-10-22T20:38:22.312Z,13.43
2023-10-22T20:40:56.006Z,13.55
2023-10-22T20:43:24.006Z,13.46
2023-10-22T20:45:50.935Z,13.17
2023-10-22T20:48:17.547Z,13.17
2023-10-22T20:50:44.589Z,13.10
2023-10-22T20:53:12.576Z,13.24
2023-10-22T20:55:39.228Z,13.21
2023-10-22T20:58:05.932Z,13.26
2023-10-22T21:00:32.463Z,13.13
2023-10-22T21:02:59.075Z,13.39
2023-10-22T21:05:26.029Z,12.95
2023-10-22T21:07:52.689Z,13.10
2023-10-22T21:10:20.507Z,13.04
2023-10-22T21:12:47.081Z,13.34
2023-10-22T21:15:13.775Z,12.77
2023-10-22T21:17:40.293Z,13.18
2023-10-22T21:20:07.845Z,12.77
2023-10-22T21:22:34.314Z,12.80
2023-10-22T21:25:00.790Z,12.97
2023-10-22T21:27:28.924Z,12.93
2023-10-22T21:29:55.592Z,12.97
2023-10-22T21:32:22.049Z,13.13
2023-10-22T21:34:48.699Z,13.03
2023-10-22T21:37:15.198Z,13.12
2023-10-22T21:39:41.723Z,13.12
2023-10-22T21:42:08.474Z,12.95
2023-10-22T21:44:36.648Z,12.76
2023-10-22T21:47:03.491Z,13.01
2023-10-22T21:49:30.057Z,12.96
2023-10-22T21:51:56.565Z,12.91
2023-10-22T21:54:23.091Z,13.26
2023-10-22T21:56:49.578Z,13.12
2023-10-22T21:59:16.061Z,12.90
2023-10-22T22:01:44.005Z,12.96
2023-10-22T22:04:10.618Z,13.01
2023-10-22T22:06:37.173Z,13.11
2023-10-22T22:09:03.778Z,12.97
2023-10-22T22:11:30.376Z,13.15
2023-10-22T22:13:56.842Z,12.74
2023-10-22T22:16:23.358Z,12.72
2023-10-22T22:18:51.319Z,12.96
2023-10-22T22:21:17.796Z,13.06
2023-10-22T22:23:44.306Z,12.95
2023-10-22T22:26:10.838Z,13.11
2023-10-22T22:28:37.302Z,12.83
2023-10-22T22:31:03.965Z,12.40
2023-10-22T22:33:30.703Z,12.08
2023-10-22T22:35:58.510Z,12.43
2023-10-22T22:38:24.992Z,12.63
2023-10-22T22:40:51.472Z,12.64
2023-10-22T22:43:17.988Z,12.68
2023-10-22T22:45:44.559Z,12.43
2023-10-22T22:48:11.325Z,12.62
2023-10-22T22:50:37.816Z,12.57
2023-10-22T22:53:05.671Z,12.81
2023-10-22T22:55:32.849Z,12.62
2023-10-22T22:57:59.316Z,12.50
2023-10-22T23:00:27.740Z,12.59
2023-10-22T23:02:54.272Z,12.61
2023-10-22T23:05:20.935Z,12.80
2023-10-22T23:07:47.680Z,12.71
2023-10-22T23:10:15.580Z,12.84
2023-10-22T23:12:42.106Z,12.79
2023-10-22T23:15:09.635Z,12.62
2023-10-22T23:17:36.396Z,12.72
2023-10-22T23:20:03.171Z,12.78
2023-10-22T23:22:29.679Z,12.76
2023-10-22T23:24:56.228Z,12.64
2023-10-22T23:27:24.083Z,12.71
2023-10-22T23:29:50.622Z,12.57
2023-10-22T23:32:17.290Z,12.84
2023-10-22T23:34:43.828Z,12.80
2023-10-22T23:37:10.339Z,12.77
2023-10-22T23:39:37.013Z,12.75
2023-10-22T23:42:03.717Z,12.44
2023-10-22T23:44:31.568Z,12.59
2023-10-22T23:46:58.262Z,12.43
2023-10-22T23:49:24.795Z,12.53
2023-10-22T23:51:51.323Z,12.63
2023-10-22T23:54:17.882Z,12.57
2023-10-22T23:56:44.427Z,12.28
2023-10-22T23:59:10.928Z,11.85
